sensor_id;sensor_type;location;lat;lon;timestamp;pressure;altitude;pressure_sealevel;temperature;humidity
71239;BME280;61342;51.442;7.370;2023-04-06T00:00:57;100270.25;;;4.58;65.75
71239;BME280;61342;51.442;7.370;2023-04-06T00:01:58;100269.94;;;4.56;65.94
71239;BME280;61342;51.442;7.370;2023-04-06T00:02:58;100265.22;;;4.53;65.89
71239;BME280;61342;51.442;7.370;2023-04-06T00:03:58;100274.25;;;4.52;66.15
71239;BME280;61342;51.442;7.370;2023-04-06T00:04:59;100253.06;;;4.38;66.37
71239;BME280;61342;51.442;7.370;2023-04-06T00:05:59;100270.81;;;4.48;66.37
71239;BME280;61342;51.442;7.370;2023-04-06T00:07:00;100264.81;;;4.46;66.43
71239;BME280;61342;51.442;7.370;2023-04-06T00:08:01;100269.25;;;4.47;66.48
71239;BME280;61342;51.442;7.370;2023-04-06T00:09:01;100265.81;;;4.43;66.59
71239;BME280;61342;51.442;7.370;2023-04-06T00:10:02;100267.06;;;4.42;66.86
71239;BME280;61342;51.442;7.370;2023-04-06T00:11:03;100267.56;;;4.40;67.07
71239;BME280;61342;51.442;7.370;2023-04-06T00:12:04;100272.47;;;4.40;67.14
71239;BME280;61342;51.442;7.370;2023-04-06T00:13:05;100278.16;;;4.40;67.34
71239;BME280;61342;51.442;7.370;2023-04-06T00:14:06;100279.44;;;4.39;67.10
71239;BME280;61342;51.442;7.370;2023-04-06T00:15:07;100267.13;;;4.33;67.31
71239;BME280;61342;51.442;7.370;2023-04-06T00:16:08;100276.75;;;4.35;67.25
71239;BME280;61342;51.442;7.370;2023-04-06T00:17:08;100273.63;;;4.33;67.15
71239;BME280;61342;51.442;7.370;2023-04-06T00:18:09;100284.22;;;4.33;67.37
71239;BME280;61342;51.442;7.370;2023-04-06T00:19:09;100274.63;;;4.30;67.28
71239;BME280;61342;51.442;7.370;2023-04-06T00:20:10;100270.19;;;4.29;67.62
71239;BME280;61342;51.442;7.370;2023-04-06T00:21:14;100264.69;;;4.26;67.85
71239;BME280;61342;51.442;7.370;2023-04-06T00:22:14;100273.53;;;4.28;67.72
71239;BME280;61342;51.442;7.370;2023-04-06T00:23:15;100271.94;;;4.27;67.93
71239;BME280;61342;51.442;7.370;2023-04-06T00:24:15;100276.38;;;4.28;68.13
71239;BME280;61342;51.442;7.370;2023-04-06T00:25:16;100266.44;;;4.23;68.13
71239;BME280;61342;51.442;7.370;2023-04-06T00:26:16;100265.19;;;4.24;68.34
71239;BME280;61342;51.442;7.370;2023-04-06T00:27:17;100267.53;;;4.26;68.63
71239;BME280;61342;51.442;7.370;2023-04-06T00:28:17;100262.31;;;4.24;68.60
71239;BME280;61342;51.442;7.370;2023-04-06T00:29:20;100263.91;;;4.25;68.38
71239;BME280;61342;51.442;7.370;2023-04-06T00:30:20;100258.13;;;4.20;68.39
71239;BME280;61342;51.442;7.370;2023-04-06T00:31:21;100269.09;;;4.27;68.66
71239;BME280;61342;51.442;7.370;2023-04-06T00:32:21;100254.78;;;4.21;68.93
71239;BME280;61342;51.442;7.370;2023-04-06T00:33:22;100263.09;;;4.25;68.66
71239;BME280;61342;51.442;7.370;2023-04-06T00:34:23;100254.28;;;4.23;68.69
71239;BME280;61342;51.442;7.370;2023-04-06T00:35:23;100246.75;;;4.20;68.69
71239;BME280;61342;51.442;7.370;2023-04-06T00:36:24;100252.03;;;4.27;69.07
71239;BME280;61342;51.442;7.370;2023-04-06T00:37:25;100251.44;;;4.23;68.69
71239;BME280;61342;51.442;7.370;2023-04-06T00:38:25;100256.16;;;4.26;69.03
71239;BME280;61342;51.442;7.370;2023-04-06T00:39:26;100248.88;;;4.25;69.06
71239;BME280;61342;51.442;7.370;2023-04-06T00:40:26;100251.25;;;4.26;69.08
71239;BME280;61342;51.442;7.370;2023-04-06T00:41:28;100240.66;;;4.27;69.10
71239;BME280;61342;51.442;7.370;2023-04-06T00:42:29;100240.34;;;4.25;69.02
71239;BME280;61342;51.442;7.370;2023-04-06T00:43:29;100237.03;;;4.26;69.12
71239;BME280;61342;51.442;7.370;2023-04-06T00:44:30;100233.13;;;4.24;69.26
71239;BME280;61342;51.442;7.370;2023-04-06T00:45:32;100243.78;;;4.29;68.94
71239;BME280;61342;51.442;7.370;2023-04-06T00:46:33;100239.69;;;4.30;69.15
71239;BME280;61342;51.442;7.370;2023-04-06T00:47:34;100239.69;;;4.30;69.19
71239;BME280;61342;51.442;7.370;2023-04-06T00:48:34;100237.63;;;4.30;69.09
71239;BME280;61342;51.442;7.370;2023-04-06T00:49:35;100241.25;;;4.31;69.27
71239;BME280;61342;51.442;7.370;2023-04-06T00:50:35;100231.94;;;4.30;69.19
71239;BME280;61342;51.442;7.370;2023-04-06T00:51:36;100231.94;;;4.30;69.07
71239;BME280;61342;51.442;7.370;2023-04-06T00:52:36;100221.25;;;4.25;69.04
71239;BME280;61342;51.442;7.370;2023-04-06T00:53:36;100231.47;;;4.32;69.04
71239;BME280;61342;51.442;7.370;2023-04-06T00:54:37;100235.06;;;4.32;68.97
71239;BME280;61342;51.442;7.370;2023-04-06T00:55:38;100228.13;;;4.33;68.91
71239;BME280;61342;51.442;7.370;2023-04-06T00:56:38;100227.63;;;4.35;68.87
71239;BME280;61342;51.442;7.370;2023-04-06T00:57:39;100227.91;;;4.37;68.53
71239;BME280;61342;51.442;7.370;2023-04-06T00:58:40;100232.34;;;4.38;68.56
71239;BME280;61342;51.442;7.370;2023-04-06T00:59:40;100203.69;;;4.27;68.40
71239;BME280;61342;51.442;7.370;2023-04-06T01:00:41;100222.53;;;4.39;68.02
71239;BME280;61342;51.442;7.370;2023-04-06T01:01:41;100223.13;;;4.43;67.91
71239;BME280;61342;51.442;7.370;2023-04-06T01:02:42;100218.69;;;4.42;67.89
71239;BME280;61342;51.442;7.370;2023-04-06T01:03:42;100207.31;;;4.42;67.89
71239;BME280;61342;51.442;7.370;2023-04-06T01:04:45;100223.03;;;4.52;67.72
71239;BME280;61342;51.442;7.370;2023-04-06T01:05:45;100218.44;;;4.54;67.38
71239;BME280;61342;51.442;7.370;2023-04-06T01:06:46;100220.78;;;4.56;67.22
71239;BME280;61342;51.442;7.370;2023-04-06T01:07:46;100219.03;;;4.58;67.03
71239;BME280;61342;51.442;7.370;2023-04-06T01:08:47;100211.44;;;4.55;67.04
71239;BME280;61342;51.442;7.370;2023-04-06T01:09:47;100197.53;;;4.57;66.98
71239;BME280;61342;51.442;7.370;2023-04-06T01:10:48;100212.16;;;4.64;66.71
71239;BME280;61342;51.442;7.370;2023-04-06T01:11:48;100192.59;;;4.57;66.75
71239;BME280;61342;51.442;7.370;2023-04-06T01:12:48;100196.94;;;4.67;66.54
71239;BME280;61342;51.442;7.370;2023-04-06T01:13:49;100204.22;;;4.68;66.31
71239;BME280;61342;51.442;7.370;2023-04-06T01:14:49;100202.44;;;4.71;65.97
71239;BME280;61342;51.442;7.370;2023-04-06T01:15:50;100202.22;;;4.74;66.11
71239;BME280;61342;51.442;7.370;2023-04-06T01:16:51;100202.03;;;4.78;66.02
71239;BME280;61342;51.442;7.370;2023-04-06T01:17:52;100200.28;;;4.80;65.70
71239;BME280;61342;51.442;7.370;2023-04-06T01:18:52;100197.91;;;4.79;65.77
71239;BME280;61342;51.442;7.370;2023-04-06T01:19:52;100201.63;;;4.85;65.74
71239;BME280;61342;51.442;7.370;2023-04-06T01:20:53;100199.28;;;4.83;65.68
71239;BME280;61342;51.442;7.370;2023-04-06T01:21:54;100194.47;;;4.89;65.27
71239;BME280;61342;51.442;7.370;2023-04-06T01:22:55;100181.78;;;4.90;65.25
71239;BME280;61342;51.442;7.370;2023-04-06T01:23:55;100190.63;;;4.92;65.62
71239;BME280;61342;51.442;7.370;2023-04-06T01:24:55;100189.63;;;4.95;64.97
71239;BME280;61342;51.442;7.370;2023-04-06T01:25:56;100186.78;;;4.95;64.94
71239;BME280;61342;51.442;7.370;2023-04-06T01:26:57;100187.09;;;4.97;65.01
71239;BME280;61342;51.442;7.370;2023-04-06T01:27:57;100180.50;;;4.91;64.96
71239;BME280;61342;51.442;7.370;2023-04-06T01:28:58;100198.06;;;5.04;64.81
71239;BME280;61342;51.442;7.370;2023-04-06T01:29:58;100193.16;;;5.05;64.45
71239;BME280;61342;51.442;7.370;2023-04-06T01:30:59;100180.97;;;5.04;64.25
71239;BME280;61342;51.442;7.370;2023-04-06T01:32:00;100185.69;;;5.07;64.27
71239;BME280;61342;51.442;7.370;2023-04-06T01:33:00;100179.72;;;5.05;64.41
71239;BME280;61342;51.442;7.370;2023-04-06T01:34:00;100181.38;;;5.12;64.43
71239;BME280;61342;51.442;7.370;2023-04-06T01:35:01;100176.13;;;5.10;63.76
71239;BME280;61342;51.442;7.370;2023-04-06T01:36:02;100183.22;;;5.14;64.04
71239;BME280;61342;51.442;7.370;2023-04-06T01:37:03;100171.53;;;5.13;63.91
71239;BME280;61342;51.442;7.370;2023-04-06T01:38:03;100175.44;;;5.15;63.81
71239;BME280;61342;51.442;7.370;2023-04-06T01:39:04;100179.38;;;5.17;63.64
71239;BME280;61342;51.442;7.370;2023-04-06T01:40:05;100179.19;;;5.21;63.86
71239;BME280;61342;51.442;7.370;2023-04-06T01:41:05;100176.03;;;5.19;63.75
71239;BME280;61342;51.442;7.370;2023-04-06T01:42:06;100173.25;;;5.24;63.41
71239;BME280;61342;51.442;7.370;2023-04-06T01:43:06;100182.59;;;5.25;63.43
71239;BME280;61342;51.442;7.370;2023-04-06T01:44:07;100169.91;;;5.26;63.53
71239;BME280;61342;51.442;7.370;2023-04-06T01:45:07;100173.84;;;5.28;63.30
71239;BME280;61342;51.442;7.370;2023-04-06T01:46:08;100169.44;;;5.27;63.44
71239;BME280;61342;51.442;7.370;2023-04-06T01:47:08;100174.13;;;5.30;63.53
71239;BME280;61342;51.442;7.370;2023-04-06T01:48:08;100166.59;;;5.27;63.18
71239;BME280;61342;51.442;7.370;2023-04-06T01:49:09;100173.63;;;5.32;63.05
71239;BME280;61342;51.442;7.370;2023-04-06T01:50:10;100174.41;;;5.32;63.00
71239;BME280;61342;51.442;7.370;2023-04-06T01:51:10;100175.22;;;5.33;62.95
71239;BME280;61342;51.442;7.370;2023-04-06T01:52:10;100176.78;;;5.34;63.25
71239;BME280;61342;51.442;7.370;2023-04-06T01:53:11;100163.50;;;5.31;62.93
71239;BME280;61342;51.442;7.370;2023-04-06T01:54:11;100171.09;;;5.34;62.96
71239;BME280;61342;51.442;7.370;2023-04-06T01:55:12;100177.06;;;5.36;63.02
71239;BME280;61342;51.442;7.370;2023-04-06T01:56:12;100164.31;;;5.31;63.04
71239;BME280;61342;51.442;7.370;2023-04-06T01:57:13;100170.59;;;5.35;62.85
71239;BME280;61342;51.442;7.370;2023-04-06T01:58:13;100185.09;;;5.37;62.52
71239;BME280;61342;51.442;7.370;2023-04-06T01:59:14;100169.28;;;5.36;62.61
71239;BME280;61342;51.442;7.370;2023-04-06T02:00:15;100171.66;;;5.38;62.68
71239;BME280;61342;51.442;7.370;2023-04-06T02:01:16;100174.78;;;5.40;62.55
71239;BME280;61342;51.442;7.370;2023-04-06T02:02:16;100165.97;;;5.38;62.75
71239;BME280;61342;51.442;7.370;2023-04-06T02:03:16;100169.59;;;5.38;62.45
71239;BME280;61342;51.442;7.370;2023-04-06T02:04:17;100163.38;;;5.40;62.55
71239;BME280;61342;51.442;7.370;2023-04-06T02:05:19;100171.16;;;5.39;62.42
71239;BME280;61342;51.442;7.370;2023-04-06T02:06:19;100165.97;;;5.38;62.26
71239;BME280;61342;51.442;7.370;2023-04-06T02:07:20;100163.38;;;5.40;62.38
71239;BME280;61342;51.442;7.370;2023-04-06T02:08:21;100169.09;;;5.40;62.67
71239;BME280;61342;51.442;7.370;2023-04-06T02:09:21;100169.09;;;5.40;62.36
71239;BME280;61342;51.442;7.370;2023-04-06T02:10:22;100164.66;;;5.39;62.65
71239;BME280;61342;51.442;7.370;2023-04-06T02:11:22;100164.16;;;5.40;62.32
71239;BME280;61342;51.442;7.370;2023-04-06T02:12:23;100164.66;;;5.39;62.30
71239;BME280;61342;51.442;7.370;2023-04-06T02:13:23;100163.13;;;5.38;62.53
71239;BME280;61342;51.442;7.370;2023-04-06T02:14:25;100163.13;;;5.38;62.60
71239;BME280;61342;51.442;7.370;2023-04-06T02:15:26;100166.25;;;5.40;62.58
71239;BME280;61342;51.442;7.370;2023-04-06T02:16:26;100159.97;;;5.36;62.44
71239;BME280;61342;51.442;7.370;2023-04-06T02:17:27;100162.81;;;5.36;62.42
71239;BME280;61342;51.442;7.370;2023-04-06T02:18:27;100168.81;;;5.38;62.38
71239;BME280;61342;51.442;7.370;2023-04-06T02:19:28;100164.38;;;5.37;62.60
71239;BME280;61342;51.442;7.370;2023-04-06T02:20:28;100170.59;;;5.35;62.19
71239;BME280;61342;51.442;7.370;2023-04-06T02:21:29;100172.13;;;5.36;62.34
71239;BME280;61342;51.442;7.370;2023-04-06T02:22:32;100159.69;;;5.34;62.35
71239;BME280;61342;51.442;7.370;2023-04-06T02:23:33;100165.16;;;5.37;62.62
71239;BME280;61342;51.442;7.370;2023-04-06T02:24:33;100158.13;;;5.33;62.46
71239;BME280;61342;51.442;7.370;2023-04-06T02:25:34;100170.84;;;5.37;62.78
71239;BME280;61342;51.442;7.370;2023-04-06T02:26:34;100164.38;;;5.37;62.68
71239;BME280;61342;51.442;7.370;2023-04-06T02:27:35;100160.09;;;5.27;62.26
71239;BME280;61342;51.442;7.370;2023-04-06T02:28:36;100156.28;;;5.30;62.20
71239;BME280;61342;51.442;7.370;2023-04-06T02:29:36;100162.03;;;5.35;62.15
71239;BME280;61342;51.442;7.370;2023-04-06T02:30:37;100161.53;;;5.37;62.28
71239;BME280;61342;51.442;7.370;2023-04-06T02:31:37;100159.19;;;5.35;62.50
71239;BME280;61342;51.442;7.370;2023-04-06T02:32:37;100168.50;;;5.36;62.26
71239;BME280;61342;51.442;7.370;2023-04-06T02:33:38;100162.53;;;5.34;62.53
71239;BME280;61342;51.442;7.370;2023-04-06T02:34:38;100164.88;;;5.35;62.34
71239;BME280;61342;51.442;7.370;2023-04-06T02:35:38;100162.31;;;5.37;62.38
71239;BME280;61342;51.442;7.370;2023-04-06T02:36:39;100156.53;;;5.32;62.40
71239;BME280;61342;51.442;7.370;2023-04-06T02:37:39;100153.00;;;5.37;62.32
71239;BME280;61342;51.442;7.370;2023-04-06T02:38:40;100156.34;;;5.35;62.16
71239;BME280;61342;51.442;7.370;2023-04-06T02:39:40;100169.09;;;5.40;62.19
71239;BME280;61342;51.442;7.370;2023-04-06T02:40:41;100164.38;;;5.37;62.73
71239;BME280;61342;51.442;7.370;2023-04-06T02:41:41;100152.13;;;5.31;62.27
71239;BME280;61342;51.442;7.370;2023-04-06T02:42:41;100168.50;;;5.36;62.11
71239;BME280;61342;51.442;7.370;2023-04-06T02:43:42;100159.47;;;5.37;62.42
71239;BME280;61342;51.442;7.370;2023-04-06T02:44:43;100165.47;;;5.39;62.48
71239;BME280;61342;51.442;7.370;2023-04-06T02:45:43;100153.41;;;5.30;62.30
71239;BME280;61342;51.442;7.370;2023-04-06T02:46:43;100163.38;;;5.40;62.26
71239;BME280;61342;51.442;7.370;2023-04-06T02:47:44;100161.81;;;5.39;62.40
71239;BME280;61342;51.442;7.370;2023-04-06T02:48:44;100157.41;;;5.38;62.25
71239;BME280;61342;51.442;7.370;2023-04-06T02:49:45;100156.13;;;5.39;62.45
71239;BME280;61342;51.442;7.370;2023-04-06T02:50:45;100160.25;;;5.38;62.26
71239;BME280;61342;51.442;7.370;2023-04-06T02:51:46;100158.97;;;5.39;62.27
71239;BME280;61342;51.442;7.370;2023-04-06T02:52:46;100164.66;;;5.39;62.40
71239;BME280;61342;51.442;7.370;2023-04-06T02:53:47;100156.91;;;5.39;62.56
71239;BME280;61342;51.442;7.370;2023-04-06T02:54:47;100162.63;;;5.39;62.40
71239;BME280;61342;51.442;7.370;2023-04-06T02:55:47;100154.56;;;5.38;62.39
71239;BME280;61342;51.442;7.370;2023-04-06T02:56:48;100151.41;;;5.36;62.39
71239;BME280;61342;51.442;7.370;2023-04-06T02:57:48;100145.22;;;5.37;62.38
71239;BME280;61342;51.442;7.370;2023-04-06T02:58:48;100146.50;;;5.36;62.56
71239;BME280;61342;51.442;7.370;2023-04-06T02:59:49;100148.88;;;5.38;62.47
71239;BME280;61342;51.442;7.370;2023-04-06T03:00:49;100148.06;;;5.37;62.04
71239;BME280;61342;51.442;7.370;2023-04-06T03:01:50;100150.41;;;5.39;62.21
71239;BME280;61342;51.442;7.370;2023-04-06T03:02:50;100149.34;;;5.36;62.38
71239;BME280;61342;51.442;7.370;2023-04-06T03:03:51;100152.00;;;5.40;62.35
71239;BME280;61342;51.442;7.370;2023-04-06T03:04:51;100146.28;;;5.40;62.22
71239;BME280;61342;51.442;7.370;2023-04-06T03:05:51;100149.13;;;5.40;62.28
71239;BME280;61342;51.442;7.370;2023-04-06T03:06:53;100152.75;;;5.40;62.47
71239;BME280;61342;51.442;7.370;2023-04-06T03:07:54;100150.41;;;5.39;62.31
71239;BME280;61342;51.442;7.370;2023-04-06T03:08:55;100149.13;;;5.40;62.61
71239;BME280;61342;51.442;7.370;2023-04-06T03:09:55;100142.66;;;5.39;62.14
71239;BME280;61342;51.442;7.370;2023-04-06T03:10:55;100139.00;;;5.39;62.33
71239;BME280;61342;51.442;7.370;2023-04-06T03:11:56;100144.44;;;5.37;62.35
71239;BME280;61342;51.442;7.370;2023-04-06T03:12:56;100136.66;;;5.37;62.19
71239;BME280;61342;51.442;7.370;2023-04-06T03:13:56;100143.16;;;5.38;62.19
71239;BME280;61342;51.442;7.370;2023-04-06T03:14:57;100150.41;;;5.39;62.12
71239;BME280;61342;51.442;7.370;2023-04-06T03:15:57;100147.28;;;5.37;62.32
71239;BME280;61342;51.442;7.370;2023-04-06T03:16:57;100148.06;;;5.37;62.25
71239;BME280;61342;51.442;7.370;2023-04-06T03:17:58;100140.00;;;5.36;62.52
71239;BME280;61342;51.442;7.370;2023-04-06T03:18:58;100148.88;;;5.38;62.29
71239;BME280;61342;51.442;7.370;2023-04-06T03:19:59;100148.88;;;5.38;62.25
71239;BME280;61342;51.442;7.370;2023-04-06T03:20:59;100144.94;;;5.35;62.12
71239;BME280;61342;51.442;7.370;2023-04-06T03:22:01;100140.31;;;5.38;62.49
71239;BME280;61342;51.442;7.370;2023-04-06T03:23:01;100142.88;;;5.36;62.42
71239;BME280;61342;51.442;7.370;2023-04-06T03:24:02;100148.56;;;5.36;62.36
71239;BME280;61342;51.442;7.370;2023-04-06T03:25:02;100144.13;;;5.35;62.04
71239;BME280;61342;51.442;7.370;2023-04-06T03:26:03;100146.22;;;5.34;62.33
71239;BME280;61342;51.442;7.370;2023-04-06T03:27:04;100143.38;;;5.34;62.35
71239;BME280;61342;51.442;7.370;2023-04-06T03:28:04;100136.31;;;5.30;62.62
71239;BME280;61342;51.442;7.370;2023-04-06T03:29:04;100125.31;;;5.23;62.34
71239;BME280;61342;51.442;7.370;2023-04-06T03:30:05;100151.91;;;5.34;62.19
71239;BME280;61342;51.442;7.370;2023-04-06T03:31:06;100151.41;;;5.36;62.33
71239;BME280;61342;51.442;7.370;2023-04-06T03:32:06;100150.63;;;5.35;62.20
71239;BME280;61342;51.442;7.370;2023-04-06T03:33:07;100146.22;;;5.34;62.03
71239;BME280;61342;51.442;7.370;2023-04-06T03:34:07;100150.13;;;5.37;62.50
71239;BME280;61342;51.442;7.370;2023-04-06T03:35:08;100149.84;;;5.35;62.19
71239;BME280;61342;51.442;7.370;2023-04-06T03:36:08;100151.41;;;5.36;62.39
71239;BME280;61342;51.442;7.370;2023-04-06T03:37:09;100148.28;;;5.34;62.32
71239;BME280;61342;51.442;7.370;2023-04-06T03:38:10;100147.22;;;5.31;62.43
71239;BME280;61342;51.442;7.370;2023-04-06T03:39:10;100144.94;;;5.35;62.43
71239;BME280;61342;51.442;7.370;2023-04-06T03:40:11;100145.66;;;5.30;62.30
71239;BME280;61342;51.442;7.370;2023-04-06T03:41:11;100146.50;;;5.36;62.28
71239;BME280;61342;51.442;7.370;2023-04-06T03:42:11;100142.88;;;5.36;62.19
71239;BME280;61342;51.442;7.370;2023-04-06T03:43:12;100147.28;;;5.37;62.39
71239;BME280;61342;51.442;7.370;2023-04-06T03:44:12;100147.78;;;5.35;62.02
71239;BME280;61342;51.442;7.370;2023-04-06T03:45:12;100142.59;;;5.34;62.19
71239;BME280;61342;51.442;7.370;2023-04-06T03:46:14;100138.44;;;5.35;62.00
71239;BME280;61342;51.442;7.370;2023-04-06T03:47:14;100146.50;;;5.36;61.92
71239;BME280;61342;51.442;7.370;2023-04-06T03:48:15;100153.00;;;5.37;62.18
71239;BME280;61342;51.442;7.370;2023-04-06T03:49:15;100159.47;;;5.37;62.09
71239;BME280;61342;51.442;7.370;2023-04-06T03:50:16;100149.34;;;5.36;62.07
71239;BME280;61342;51.442;7.370;2023-04-06T03:51:16;100154.06;;;5.39;61.91
71239;BME280;61342;51.442;7.370;2023-04-06T03:52:17;100150.41;;;5.39;61.72
71239;BME280;61342;51.442;7.370;2023-04-06T03:53:18;100147.28;;;5.37;61.75
71239;BME280;61342;51.442;7.370;2023-04-06T03:54:18;100146.28;;;5.40;61.52
71239;BME280;61342;51.442;7.370;2023-04-06T03:55:19;100152.28;;;5.42;61.50
71239;BME280;61342;51.442;7.370;2023-04-06T03:56:19;100140.59;;;5.40;61.55
71239;BME280;61342;51.442;7.370;2023-04-06T03:57:20;100143.25;;;5.43;61.62
71239;BME280;61342;51.442;7.370;2023-04-06T03:58:20;100142.16;;;5.41;61.66
71239;BME280;61342;51.442;7.370;2023-04-06T03:59:21;100148.13;;;5.43;61.55
71239;BME280;61342;51.442;7.370;2023-04-06T04:00:21;100137.75;;;5.40;61.41
71239;BME280;61342;51.442;7.370;2023-04-06T04:01:21;100142.44;;;5.43;61.29
71239;BME280;61342;51.442;7.370;2023-04-06T04:02:22;100135.38;;;5.38;61.29
71239;BME280;61342;51.442;7.370;2023-04-06T04:03:22;100138.81;;;5.42;61.10
71239;BME280;61342;51.442;7.370;2023-04-06T04:04:27;100149.22;;;5.45;61.09
71239;BME280;61342;51.442;7.370;2023-04-06T04:05:28;100139.09;;;5.44;61.38
71239;BME280;61342;51.442;7.370;2023-04-06T04:06:28;100139.88;;;5.45;60.71
71239;BME280;61342;51.442;7.370;2023-04-06T04:07:29;100138.31;;;5.44;61.30
71239;BME280;61342;51.442;7.370;2023-04-06T04:08:29;100141.94;;;5.44;61.16
71239;BME280;61342;51.442;7.370;2023-04-06T04:09:29;100147.63;;;5.44;61.09
71239;BME280;61342;51.442;7.370;2023-04-06T04:10:30;100139.31;;;5.41;60.67
71239;BME280;61342;51.442;7.370;2023-04-06T04:11:30;100136.47;;;5.41;61.02
71239;BME280;61342;51.442;7.370;2023-04-06T04:12:31;100139.59;;;5.43;60.98
71239;BME280;61342;51.442;7.370;2023-04-06T04:13:31;100149.44;;;5.42;61.14
71239;BME280;61342;51.442;7.370;2023-04-06T04:14:31;100151.28;;;5.45;61.11
71239;BME280;61342;51.442;7.370;2023-04-06T04:15:32;100146.09;;;5.43;60.98
71239;BME280;61342;51.442;7.370;2023-04-06T04:16:32;100143.50;;;5.45;60.99
71239;BME280;61342;51.442;7.370;2023-04-06T04:17:33;100140.88;;;5.42;60.99
71239;BME280;61342;51.442;7.370;2023-04-06T04:18:33;100126.28;;;5.34;61.01
71239;BME280;61342;51.442;7.370;2023-04-06T04:19:33;100135.09;;;5.36;60.86
71239;BME280;61342;51.442;7.370;2023-04-06T04:20:34;100149.44;;;5.42;60.98
71239;BME280;61342;51.442;7.370;2023-04-06T04:21:42;100149.44;;;5.42;60.86
71239;BME280;61342;51.442;7.370;2023-04-06T04:22:43;100145.00;;;5.41;60.92
71239;BME280;61342;51.442;7.370;2023-04-06T04:23:44;100142.44;;;5.43;60.85
71239;BME280;61342;51.442;7.370;2023-04-06T04:24:44;100149.91;;;5.40;60.92
71239;BME280;61342;51.442;7.370;2023-04-06T04:25:44;100140.09;;;5.41;60.96
71239;BME280;61342;51.442;7.370;2023-04-06T04:26:45;100142.16;;;5.41;61.12
71239;BME280;61342;51.442;7.370;2023-04-06T04:27:45;100140.78;;;5.36;60.95
71239;BME280;61342;51.442;7.370;2023-04-06T04:28:46;100143.16;;;5.38;61.01
71239;BME280;61342;51.442;7.370;2023-04-06T04:29:46;100138.44;;;5.35;61.19
71239;BME280;61342;51.442;7.370;2023-04-06T04:30:47;100147.56;;;5.39;60.69
71239;BME280;61342;51.442;7.370;2023-04-06T04:31:47;100147.56;;;5.39;60.76
71239;BME280;61342;51.442;7.370;2023-04-06T04:32:47;100152.00;;;5.40;61.16
71239;BME280;61342;51.442;7.370;2023-04-06T04:33:48;100137.38;;;5.32;60.81
71239;BME280;61342;51.442;7.370;2023-04-06T04:34:48;100154.56;;;5.38;61.00
71239;BME280;61342;51.442;7.370;2023-04-06T04:35:48;100137.88;;;5.31;60.86
71239;BME280;61342;51.442;7.370;2023-04-06T04:36:49;100138.75;;;5.37;60.80
71239;BME280;61342;51.442;7.370;2023-04-06T04:37:49;100135.59;;;5.35;60.24
71239;BME280;61342;51.442;7.370;2023-04-06T04:38:50;100138.44;;;5.35;60.62
71239;BME280;61342;51.442;7.370;2023-04-06T04:39:50;100132.75;;;5.35;60.72
71239;BME280;61342;51.442;7.370;2023-04-06T04:40:50;100140.53;;;5.34;60.70
71239;BME280;61342;51.442;7.370;2023-04-06T04:41:51;100153.75;;;5.37;60.70
71239;BME280;61342;51.442;7.370;2023-04-06T04:42:51;100141.59;;;5.37;60.89
71239;BME280;61342;51.442;7.370;2023-04-06T04:43:52;100147.00;;;5.35;60.48
71239;BME280;61342;51.442;7.370;2023-04-06T04:44:52;100141.28;;;5.35;60.78
71239;BME280;61342;51.442;7.370;2023-04-06T04:45:52;100142.88;;;5.36;60.28
71239;BME280;61342;51.442;7.370;2023-04-06T04:46:53;100137.88;;;5.31;60.80
71239;BME280;61342;51.442;7.370;2023-04-06T04:47:53;100124.31;;;5.26;60.60
71239;BME280;61342;51.442;7.370;2023-04-06T04:48:53;100149.84;;;5.35;60.89
71239;BME280;61342;51.442;7.370;2023-04-06T04:49:54;100138.16;;;5.33;60.65
71239;BME280;61342;51.442;7.370;2023-04-06T04:50:54;100125.31;;;5.23;60.79
71239;BME280;61342;51.442;7.370;2023-04-06T04:51:55;100142.03;;;5.30;60.75
71239;BME280;61342;51.442;7.370;2023-04-06T04:52:55;100136.78;;;5.28;60.65
71239;BME280;61342;51.442;7.370;2023-04-06T04:53:56;100149.25;;;5.31;60.70
71239;BME280;61342;51.442;7.370;2023-04-06T04:54:56;100145.91;;;5.32;60.81
71239;BME280;61342;51.442;7.370;2023-04-06T04:55:56;100146.41;;;5.31;60.68
71239;BME280;61342;51.442;7.370;2023-04-06T04:56:57;100139.66;;;5.28;60.61
71239;BME280;61342;51.442;7.370;2023-04-06T04:57:57;100145.91;;;5.32;60.39
71239;BME280;61342;51.442;7.370;2023-04-06T04:58:58;100134.25;;;5.30;60.12
71239;BME280;61342;51.442;7.370;2023-04-06T04:59:58;100137.28;;;5.27;60.43
71239;BME280;61342;51.442;7.370;2023-04-06T05:00:59;100143.56;;;5.31;60.17
71239;BME280;61342;51.442;7.370;2023-04-06T05:01:59;100145.66;;;5.30;59.98
71239;BME280;61342;51.442;7.370;2023-04-06T05:03:00;100123.28;;;5.23;59.95
71239;BME280;61342;51.442;7.370;2023-04-06T05:04:00;100143.06;;;5.32;60.16
71239;BME280;61342;51.442;7.370;2023-04-06T05:05:01;100142.03;;;5.30;59.83
71239;BME280;61342;51.442;7.370;2023-04-06T05:06:01;100136.31;;;5.30;60.02
71239;BME280;61342;51.442;7.370;2023-04-06T05:07:06;100142.59;;;5.34;59.75
71239;BME280;61342;51.442;7.370;2023-04-06T05:08:07;100142.59;;;5.34;59.89
71239;BME280;61342;51.442;7.370;2023-04-06T05:09:07;100133.47;;;5.30;59.87
71239;BME280;61342;51.442;7.370;2023-04-06T05:10:08;100136.91;;;5.34;59.56
71239;BME280;61342;51.442;7.370;2023-04-06T05:11:09;100137.16;;;5.36;59.72
71239;BME280;61342;51.442;7.370;2023-04-06T05:12:09;100137.16;;;5.36;59.58
71239;BME280;61342;51.442;7.370;2023-04-06T05:13:10;100138.75;;;5.37;59.37
71239;BME280;61342;51.442;7.370;2023-04-06T05:14:10;100136.41;;;5.35;59.37
71239;BME280;61342;51.442;7.370;2023-04-06T05:15:11;100143.16;;;5.38;59.40
71239;BME280;61342;51.442;7.370;2023-04-06T05:16:11;100147.28;;;5.37;59.35
71239;BME280;61342;51.442;7.370;2023-04-06T05:17:12;100135.91;;;5.37;59.30
71239;BME280;61342;51.442;7.370;2023-04-06T05:18:12;100140.88;;;5.42;59.14
71239;BME280;61342;51.442;7.370;2023-04-06T05:19:13;100134.03;;;5.34;59.01
71239;BME280;61342;51.442;7.370;2023-04-06T05:20:13;100138.03;;;5.42;59.02
71239;BME280;61342;51.442;7.370;2023-04-06T05:21:14;100138.03;;;5.42;58.83